Aegean Dream — SVCM3 — position and weather

sailwx.info

Track history (hours):
 
Tides and Currents Weather Stations Pressure Air Temp Water Temp Dewpoint Dewpoint Depression Visibility Wind Speed Wind Dir Waves Ship Positions

Aegean Dream

Last reported at 2017-Oct-20 11:36 UTC. Time now 2017-Oct-20 12:18 UTC.
Position N 52°11' E 003°00'.

Length 274 m; draft 9 m.

Type: Tanker. MMSI: 241463000.

Date/timePositionNaut miles runAvg speedWind from/ knotsBaromVisibWave heightAir tempDewpointWater temp
2017-Oct-20 11:36N 52°11' E 003°00'1 9.5
2017-Oct-20 11:29N 52°11' E 003°02'5 9.8
2017-Oct-20 10:59N 52°13' E 003°09'5 9.9
2017-Oct-20 10:30N 52°14' E 003°17'510.6
2017-Oct-20 09:59N 52°12' E 003°25'511.1
2017-Oct-20 09:30N 52°12' E 003°34'1 2.7
2017-Oct-20 08:59N 52°11' E 003°36'0 0.2
2017-Oct-20 08:26N 52°11' E 003°36'0 0.2
2017-Oct-20 07:59N 52°11' E 003°36'0 0.0
2017-Oct-20 06:59N 52°11' E 003°36'0 0.2
2017-Oct-20 06:23N 52°11' E 003°36'0 0.1
2017-Oct-20 05:14N 52°11' E 003°36'0 0.2
2017-Oct-20 04:53N 52°11' E 003°36'0 0.0
2017-Oct-20 00:32N 52°11' E 003°36'0 0.1
2017-Oct-20 00:20N 52°11' E 003°36'0 0.0
2017-Oct-19 23:53N 52°11' E 003°36'0 0.1
2017-Oct-19 23:29N 52°11' E 003°36'0 0.1
2017-Oct-19 22:56N 52°11' E 003°36'0 0.2
2017-Oct-19 22:26N 52°11' E 003°36'0 0.1
2017-Oct-19 21:59N 52°11' E 003°35'0 0.1
2017-Oct-19 21:29N 52°11' E 003°35'0 0.0
2017-Oct-19 20:59N 52°11' E 003°35'0 0.0
2017-Oct-19 20:26N 52°11' E 003°35'0 0.0
2017-Oct-19 19:59N 52°11' E 003°35'0 0.1
2017-Oct-19 19:29N 52°11' E 003°36'0 0.2
2017-Oct-19 18:47N 52°11' E 003°36'0 0.0
2017-Oct-19 18:29N 52°11' E 003°36'0 0.0
2017-Oct-19 17:47N 52°11' E 003°36'0 0.0
2017-Oct-19 16:41N 52°11' E 003°36'0 0.1
2017-Oct-19 15:18N 52°11' E 003°36'0 0.8
2017-Oct-19 15:00N 52°11' E 003°36'2 3.2
2017-Oct-19 14:31N 52°11' E 003°38'510.2
2017-Oct-19 14:01N 52°07' E 003°44'611.6
2017-Oct-19 13:31N 52°04' E 003°52'4 7.2
2017-Oct-19 13:01N 52°02' E 003°57'611.4
2017-Oct-19 12:31N 51°59' E 004°05'2 3.5
2017-Oct-19 11:58N 51°57' E 004°05'0 0.0
2017-Oct-19 11:25N 51°57' E 004°05'0 0.0
2017-Oct-19 10:58N 51°57' E 004°05'0 0.0
2017-Oct-19 10:25N 51°57' E 004°05'0 0.0
2017-Oct-19 09:58N 51°57' E 004°05'0 0.0
2017-Oct-19 09:28N 51°57' E 004°05'0 0.0
2017-Oct-19 08:55N 51°57' E 004°05'0 0.0
2017-Oct-19 08:28N 51°57' E 004°05'0 0.0
2017-Oct-19 07:52N 51°57' E 004°05'0 0.0
2017-Oct-19 07:28N 51°57' E 004°05'0 0.0
2017-Oct-19 06:58N 51°57' E 004°05'0 0.0
2017-Oct-19 06:28N 51°57' E 004°05'0 0.0
2017-Oct-19 05:55N 51°57' E 004°05'0 0.0
2017-Oct-19 05:28N 51°57' E 004°05'0 0.0
2017-Oct-19 04:49N 51°57' E 004°05'0 0.0
2017-Oct-19 04:29N 51°57' E 004°05'0 0.0
2017-Oct-19 03:59N 51°57' E 004°05'0 0.0
2017-Oct-19 03:29N 51°57' E 004°05'0 0.0
2017-Oct-19 02:56N 51°57' E 004°05'0 0.0
2017-Oct-19 02:29N 51°57' E 004°05'0 0.0
2017-Oct-19 01:56N 51°57' E 004°05'0 0.0
2017-Oct-19 01:26N 51°57' E 004°05'0 0.0
2017-Oct-19 00:59N 51°57' E 004°05'0 0.0
2017-Oct-19 00:29N 51°57' E 004°05'0 0.0
2017-Oct-18 23:56N 51°57' E 004°05'0 0.0
2017-Oct-18 23:26N 51°57' E 004°05'0 0.0
2017-Oct-18 22:59N 51°57' E 004°05'0 0.0
2017-Oct-18 22:29N 51°57' E 004°05'0 0.0
2017-Oct-18 21:59N 51°57' E 004°05'0 0.0
2017-Oct-18 21:29N 51°57' E 004°05'0 0.0
2017-Oct-18 20:56N 51°57' E 004°05'0 0.0
2017-Oct-18 20:26N 51°57' E 004°05'0 0.0
2017-Oct-18 19:56N 51°57' E 004°05'0 0.0
2017-Oct-18 19:26N 51°57' E 004°05'0 0.0
2017-Oct-18 18:59N 51°57' E 004°05'0 0.0
2017-Oct-18 18:29N 51°57' E 004°05'0 0.0
2017-Oct-18 17:56N 51°57' E 004°05'0 0.0
2017-Oct-18 17:29N 51°57' E 004°05'0 0.0
2017-Oct-18 16:56N 51°57' E 004°05'0 0.0
2017-Oct-18 16:23N 51°57' E 004°05'0 0.0
2017-Oct-18 15:56N 51°57' E 004°05'0 0.0
2017-Oct-18 15:26N 51°57' E 004°05'0 0.0
2017-Oct-18 14:59N 51°57' E 004°05'0 0.0
2017-Oct-18 13:50N 51°57' E 004°05'0 0.0
2017-Oct-18 13:29N 51°57' E 004°05'0 0.0
2017-Oct-18 12:59N 51°57' E 004°05'0 0.0
2017-Oct-18 12:30N 51°57' E 004°05'0 0.0
2017-Oct-18 12:00N 51°57' E 004°05'0 0.0
2017-Oct-18 11:28N 51°57' E 004°05'0 0.0
2017-Oct-18 10:58N 51°57' E 004°05'0 0.0
2017-Oct-18 10:28N 51°57' E 004°05'0 0.0
2017-Oct-18 09:58N 51°57' E 004°05'0 0.0
2017-Oct-18 09:28N 51°57' E 004°05'0 0.0
2017-Oct-18 08:52N 51°57' E 004°05'0 0.0
2017-Oct-18 08:25N 51°57' E 004°05'0 0.0
2017-Oct-18 07:58N 51°57' E 004°05'0 0.0
2017-Oct-18 07:28N 51°57' E 004°05'0 0.0
2017-Oct-18 06:46N 51°57' E 004°05'0 0.0
2017-Oct-18 06:28N 51°57' E 004°05'0 0.0
2017-Oct-18 05:55N 51°57' E 004°05'0 0.0
2017-Oct-18 05:22N 51°57' E 004°05'0 0.0
2017-Oct-18 04:58N 51°57' E 004°05'0 0.0
2017-Oct-18 04:25N 51°57' E 004°05'0 0.0
2017-Oct-18 03:58N 51°57' E 004°05'0 0.0
2017-Oct-18 03:28N 51°57' E 004°05'0 0.0
2017-Oct-18 02:58N 51°57' E 004°05'0 0.0
2017-Oct-18 02:28N 51°57' E 004°05'0 0.0
2017-Oct-18 01:52N 51°57' E 004°05'0 0.0
2017-Oct-18 01:25N 51°57' E 004°05'0 0.0
2017-Oct-18 00:58N 51°57' E 004°05'0 0.0
2017-Oct-18 00:28N 51°57' E 004°05'0 0.0
2017-Oct-17 23:58N 51°57' E 004°05'0 0.0
2017-Oct-17 23:28N 51°57' E 004°05'0 0.0
2017-Oct-17 22:58N 51°57' E 004°05'0 0.0
2017-Oct-17 22:28N 51°57' E 004°05'0 0.0
2017-Oct-17 21:58N 51°57' E 004°05'0 0.0
2017-Oct-17 21:28N 51°57' E 004°05'0 0.0
2017-Oct-17 20:58N 51°57' E 004°05'0 0.0
2017-Oct-17 20:28N 51°57' E 004°05'0 0.0
2017-Oct-17 20:00N 51°57' E 004°05'0 0.0
2017-Oct-17 19:30N 51°57' E 004°05'0 0.0
2017-Oct-17 19:00N 51°57' E 004°05'0 0.0
2017-Oct-17 18:27N 51°57' E 004°05'0 0.0
2017-Oct-17 17:57N 51°57' E 004°05'0 0.0
2017-Oct-17 17:30N 51°57' E 004°05'0 0.0
2017-Oct-17 17:00N 51°57' E 004°05'0 0.0
2017-Oct-17 16:27N 51°57' E 004°05'0 0.0
2017-Oct-17 15:54N 51°57' E 004°05'0 0.0
2017-Oct-17 15:18N 51°57' E 004°05'0 0.0
2017-Oct-17 14:51N 51°57' E 004°05'0 0.0
2017-Oct-17 14:30N 51°57' E 004°05'0 0.0
2017-Oct-17 13:57N 51°57' E 004°05'0 0.0
2017-Oct-17 13:30N 51°57' E 004°05'0 0.0
2017-Oct-17 13:00N 51°57' E 004°05'0 0.0
2017-Oct-17 12:27N 51°57' E 004°05'0 0.0
2017-Oct-17 11:57N 51°57' E 004°05'0 0.0
2017-Oct-17 11:30N 51°57' E 004°05'0 0.0
2017-Oct-17 11:00N 51°57' E 004°05'0 0.0
2017-Oct-17 10:27N 51°57' E 004°05'0 0.0
2017-Oct-17 09:57N 51°57' E 004°05'0 0.0
2017-Oct-17 09:24N 51°57' E 004°05'0 0.0
2017-Oct-17 09:00N 51°57' E 004°05'0 0.0
2017-Oct-17 08:27N 51°57' E 004°05'0 0.0
2017-Oct-17 07:57N 51°57' E 004°05'0 0.0
2017-Oct-17 07:18N 51°57' E 004°05'0 0.0
2017-Oct-17 07:00N 51°57' E 004°05'0 0.0
2017-Oct-17 06:27N 51°57' E 004°05'0 0.0
2017-Oct-17 06:00N 51°57' E 004°05'0 0.0
2017-Oct-17 05:30N 51°57' E 004°05'0 0.0
2017-Oct-17 04:57N 51°57' E 004°05'0 0.0
2017-Oct-17 04:30N 51°57' E 004°05'0 0.0
2017-Oct-17 03:51N 51°57' E 004°05'0 0.0
2017-Oct-17 03:15N 51°57' E 004°05'0 0.0
2017-Oct-17 02:57N 51°57' E 004°05'0 0.0
2017-Oct-17 02:30N 51°57' E 004°05'1 1.0
2017-Oct-17 02:00N 51°57' E 004°05'2 4.5
2017-Oct-17 01:30N 51°59' E 004°03'5 9.4
2017-Oct-17 01:00N 52°01' E 003°56'611.7
2017-Oct-17 00:30N 52°01' E 003°47'5 9.6
2017-Oct-17 00:00N 52°02' E 003°39'1 1.5
2017-Oct-16 23:30N 52°03' E 003°38'2 4.4
2017-Oct-16 23:00N 52°00' E 003°38'2 4.9
2017-Oct-16 22:30N 51°58' E 003°37'3 5.3
2017-Oct-16 22:00N 51°57' E 003°32'5 9.5
2017-Oct-16 21:30N 51°56' E 003°25'510.5
2017-Oct-16 21:00N 51°55' E 003°17'611.5
2017-Oct-16 20:30N 51°53' E 003°08'611.1
2017-Oct-16 20:00N 51°51' E 002°59'510.9
2017-Oct-16 19:30N 51°50' E 002°51'610.4
2017-Oct-16 18:55N 51°48' E 002°42'4 9.6
2017-Oct-16 18:27N 51°45' E 002°36'6 9.2
2017-Oct-16 17:46N 51°40' E 002°29'7 8.0
2017-Oct-16 16:54N 51°35' E 002°22'4 8.5
2017-Oct-16 16:26N 51°32' E 002°17'4 8.9
2017-Oct-16 16:00N 51°29' E 002°14'510.4
2017-Oct-16 15:30N 51°25' E 002°09'611.3
2017-Oct-16 15:00N 51°21' E 002°03'1211.5
2017-Oct-16 14:00N 51°13' E 001°49'612.1
2017-Oct-16 13:30N 51°08' E 001°43'612.2
2017-Oct-16 13:00N 51°03' E 001°37'612.5
2017-Oct-16 12:30N 50°58' E 001°31'612.6
2017-Oct-16 12:00N 50°53' E 001°27'612.7
2017-Oct-16 11:30N 50°47' E 001°24'612.2
2017-Oct-16 11:00N 50°41' E 001°20'611.9
2017-Oct-16 10:30N 50°37' E 001°13'611.9
2017-Oct-16 10:00N 50°34' E 001°05'711.6
2017-Oct-16 09:23N 50°30' E 000°56'611.3
2017-Oct-16 08:49N 50°27' E 000°46'811.5
2017-Oct-16 08:09N 50°26' E 000°35'411.8
2017-Oct-16 07:51N 50°25' E 000°29'412.0
2017-Oct-16 07:30N 50°24' E 000°23'812.5
2017-Oct-16 06:53N 50°22' E 000°11'512.9
2017-Oct-16 06:30N 50°20' E 000°04'713.2
2017-Oct-16 05:58N 50°18' W 000°06'613.4
2017-Oct-16 05:30N 50°16' W 000°16'713.5
2017-Oct-16 05:00N 50°14' W 000°26'713.5
2017-Oct-16 04:30N 50°12' W 000°36'713.3
2017-Oct-16 04:00N 50°10' W 000°46'2512.3
2017-Oct-16 01:58N 50°04' W 001°24'510.8
2017-Oct-16 01:30N 50°03' W 001°31'510.2
2017-Oct-16 01:00N 50°02' W 001°39'5 9.7
2017-Oct-16 00:30N 50°00' W 001°46'5 9.4
2017-Oct-15 23:55N 49°59' W 001°54'4 9.0
2017-Oct-15 23:30N 49°58' W 002°00'4 8.8
2017-Oct-15 23:00N 49°56' W 002°07'4 8.8
2017-Oct-15 22:30N 49°55' W 002°13'19 9.7
2017-Oct-15 20:31N 49°50' W 002°42'210.7
2017-Oct-15 20:20N 49°50' W 002°45'410.9
2017-Oct-15 20:00N 49°49' W 002°51'611.1
2017-Oct-15 19:30N 49°48' W 002°59'611.5
2017-Oct-15 19:01N 49°45' W 003°07'611.7
2017-Oct-15 18:31N 49°42' W 003°15'611.6
2017-Oct-15 18:00N 49°39' W 003°23'611.9
2017-Oct-15 17:28N 49°36' W 003°31'611.8
2017-Oct-15 16:59N 49°33' W 003°39'611.8
2017-Oct-15 16:31N 49°31' W 003°46'612.0
2017-Oct-15 16:00N 49°28' W 003°54'612.1
2017-Oct-15 15:30N 49°25' W 004°02'612.1
2017-Oct-15 15:00N 49°22' W 004°11'2012.3
2017-Oct-15 13:24N 49°12' W 004°37'512.3
2017-Oct-15 13:01N 49°10' W 004°44'912.3
2017-Oct-15 12:16N 49°06' W 004°56'312.4
2017-Oct-15 12:00N 49°04' W 005°00'1110.9
2017-Oct-15 10:59N 48°58' W 005°14'5 9.9
2017-Oct-15 10:30N 48°55' W 005°20'5 9.7
2017-Oct-15 10:01N 48°52' W 005°26'5 9.6
2017-Oct-15 09:31N 48°50' W 005°32'610.1
2017-Oct-15 08:53N 48°46' W 005°40'1311.2
2017-Oct-15 07:43N 48°34' W 005°49'711.0
2017-Oct-15 07:07N 48°28' W 005°54'410.8
2017-Oct-15 06:43N 48°25' W 005°57'210.5
2017-Oct-15 06:30N 48°23' W 005°59'610.5
2017-Oct-15 05:58N 48°18' W 006°03'510.6
2017-Oct-15 05:30N 48°13' W 006°06'610.6
2017-Oct-15 04:57N 48°08' W 006°10'510.5
2017-Oct-15 04:31N 48°04' W 006°14'710.5
2017-Oct-15 03:49N 47°57' W 006°19'610.6
2017-Oct-15 03:15N 47°52' W 006°23'310.8
2017-Oct-15 02:57N 47°49' W 006°25'510.8
2017-Oct-15 02:28N 47°45' W 006°29'1610.9
2017-Oct-15 00:58N 47°30' W 006°40'4511.0
2017-Oct-14 20:54N 46°51' W 007°11'28010.9
2017-Oct-13 19:18N 42°36' W 009°56'310.8
2017-Oct-13 19:01N 42°33' W 009°56'8311.1
2017-Oct-13 11:30N 41°10' W 009°56'510.7
2017-Oct-13 11:00N 41°05' W 009°57'510.6
2017-Oct-13 10:30N 40°59' W 009°57'4110.8
2017-Oct-13 06:45N 40°19' W 009°56'310.8
2017-Oct-13 06:30N 40°16' W 009°56'510.7
2017-Oct-13 06:00N 40°11' W 009°56'4110.9
2017-Oct-13 02:16N 39°30' W 009°57'511.0
2017-Oct-13 01:49N 39°25' W 009°57'411.1
2017-Oct-13 01:29N 39°22' W 009°57'511.2
2017-Oct-13 01:00N 39°16' W 009°57'510.7
2017-Oct-13 00:30N 39°11' W 009°57'510.9
2017-Oct-13 00:00N 39°05' W 009°57'611.1
2017-Oct-12 23:30N 38°60' W 009°57'611.0
2017-Oct-12 23:00N 38°54' W 009°57'611.1
2017-Oct-12 22:30N 38°49' W 009°57'612.3
2017-Oct-12 22:00N 38°43' W 009°57'612.7
2017-Oct-12 21:30N 38°36' W 009°55'612.9
2017-Oct-12 21:00N 38°30' W 009°53'713.0
2017-Oct-12 20:30N 38°24' W 009°51'712.9
2017-Oct-12 20:00N 38°18' W 009°49'712.5
2017-Oct-12 19:27N 38°11' W 009°47'511.9
2017-Oct-12 18:59N 38°05' W 009°46'611.6
2017-Oct-12 18:30N 37°60' W 009°44'811.2
2017-Oct-12 17:49N 37°52' W 009°42'411.7
2017-Oct-12 17:28N 37°48' W 009°41'511.6
2017-Oct-12 17:01N 37°43' W 009°39'611.4
2017-Oct-12 16:30N 37°38' W 009°38'6010.7
2017-Oct-12 10:53N 36°41' W 009°13'510.7
2017-Oct-12 10:23N 36°39' W 009°07'511.9
2017-Oct-12 09:57N 36°38' W 009°01'612.3
2017-Oct-12 09:29N 36°37' W 008°54'911.8
2017-Oct-12 08:42N 36°34' W 008°43'311.9
2017-Oct-12 08:28N 36°34' W 008°39'611.9
2017-Oct-12 07:58N 36°32' W 008°32'611.8
2017-Oct-12 07:30N 36°31' W 008°25'611.6
2017-Oct-12 06:57N 36°29' W 008°18'511.3
2017-Oct-12 06:30N 36°28' W 008°12'611.7
2017-Oct-12 06:00N 36°26' W 008°05'611.8
2017-Oct-12 05:29N 36°25' W 007°57'511.6
2017-Oct-12 05:00N 36°23' W 007°51'711.4
2017-Oct-12 04:24N 36°21' W 007°43'511.5
2017-Oct-12 03:59N 36°19' W 007°37'611.8
2017-Oct-12 03:30N 36°17' W 007°31'612.2
2017-Oct-12 03:00N 36°14' W 007°24'611.9
2017-Oct-12 02:29N 36°12' W 007°17'3811.7
2017-Oct-11 23:13N 35°58' W 006°33'511.4
2017-Oct-11 22:47N 35°57' W 006°27'4110.8
2017-Oct-11 19:00N 35°58' W 005°36'510.9
2017-Oct-11 18:30N 35°59' W 005°30'510.7
2017-Oct-11 18:01N 36°01' W 005°23'510.9
2017-Oct-11 17:31N 36°03' W 005°17'510.4
2017-Oct-11 17:00N 36°04' W 005°11'20311.2
2017-Oct-10 22:54N 36°26' W 001°01'1611.3
2017-Oct-10 21:32N 36°32' W 000°43'111.3
2017-Oct-10 21:29N 36°32' W 000°42'2911.6
2017-Oct-10 18:58N 36°43' W 000°09'611.5
2017-Oct-10 18:28N 36°45' W 000°02'511.4
2017-Oct-10 18:00N 36°48' E 000°04'611.6
2017-Oct-10 17:31N 36°50' E 000°10'611.6
2017-Oct-10 16:59N 36°53' E 000°17'611.6
2017-Oct-10 16:31N 36°55' E 000°24'611.5
2017-Oct-10 16:00N 36°57' E 000°30'611.6
2017-Oct-10 15:30N 36°59' E 000°37'811.8
2017-Oct-10 14:50N 37°02' E 000°46'1612.0
2017-Oct-10 13:28N 37°08' E 001°06'  
Track history (hours):
 
Tides and Currents Weather Stations Pressure Air Temp Water Temp Dewpoint Dewpoint Depression Visibility Wind Speed Wind Dir Waves Ship Positions

Aegean Dream

Last reported at 2017-Oct-20 11:36 UTC. Time now 2017-Oct-20 12:18 UTC.
Position N 52°11' E 003°00'.

Length 274 m; draft 9 m.

Type: Tanker. MMSI: 241463000.

Date/timePositionNaut miles runAvg speedWind from/ knotsBaromVisibWave heightAir tempDewpointWater temp
2017-Oct-20 11:36N 52°11' E 003°00'1 9.5
2017-Oct-20 11:29N 52°11' E 003°02'5 9.8
2017-Oct-20 10:59N 52°13' E 003°09'5 9.9
2017-Oct-20 10:30N 52°14' E 003°17'510.6
2017-Oct-20 09:59N 52°12' E 003°25'511.1
2017-Oct-20 09:30N 52°12' E 003°34'1 2.7
2017-Oct-20 08:59N 52°11' E 003°36'0 0.2
2017-Oct-20 08:26N 52°11' E 003°36'0 0.2
2017-Oct-20 07:59N 52°11' E 003°36'0 0.0
2017-Oct-20 06:59N 52°11' E 003°36'0 0.2
2017-Oct-20 06:23N 52°11' E 003°36'0 0.1
2017-Oct-20 05:14N 52°11' E 003°36'0 0.2
2017-Oct-20 04:53N 52°11' E 003°36'0 0.0
2017-Oct-20 00:32N 52°11' E 003°36'0 0.1
2017-Oct-20 00:20N 52°11' E 003°36'0 0.0
2017-Oct-19 23:53N 52°11' E 003°36'0 0.1
2017-Oct-19 23:29N 52°11' E 003°36'0 0.1
2017-Oct-19 22:56N 52°11' E 003°36'0 0.2
2017-Oct-19 22:26N 52°11' E 003°36'0 0.1
2017-Oct-19 21:59N 52°11' E 003°35'0 0.1
2017-Oct-19 21:29N 52°11' E 003°35'0 0.0
2017-Oct-19 20:59N 52°11' E 003°35'0 0.0
2017-Oct-19 20:26N 52°11' E 003°35'0 0.0
2017-Oct-19 19:59N 52°11' E 003°35'0 0.1
2017-Oct-19 19:29N 52°11' E 003°36'0 0.2
2017-Oct-19 18:47N 52°11' E 003°36'0 0.0
2017-Oct-19 18:29N 52°11' E 003°36'0 0.0
2017-Oct-19 17:47N 52°11' E 003°36'0 0.0
2017-Oct-19 16:41N 52°11' E 003°36'0 0.1
2017-Oct-19 15:18N 52°11' E 003°36'0 0.8
2017-Oct-19 15:00N 52°11' E 003°36'2 3.2
2017-Oct-19 14:31N 52°11' E 003°38'510.2
2017-Oct-19 14:01N 52°07' E 003°44'611.6
2017-Oct-19 13:31N 52°04' E 003°52'4 7.2
2017-Oct-19 13:01N 52°02' E 003°57'611.4
2017-Oct-19 12:31N 51°59' E 004°05'2 3.5
2017-Oct-19 11:58N 51°57' E 004°05'0 0.0
2017-Oct-19 11:25N 51°57' E 004°05'0 0.0
2017-Oct-19 10:58N 51°57' E 004°05'0 0.0
2017-Oct-19 10:25N 51°57' E 004°05'0 0.0
2017-Oct-19 09:58N 51°57' E 004°05'0 0.0
2017-Oct-19 09:28N 51°57' E 004°05'0 0.0
2017-Oct-19 08:55N 51°57' E 004°05'0 0.0
2017-Oct-19 08:28N 51°57' E 004°05'0 0.0
2017-Oct-19 07:52N 51°57' E 004°05'0 0.0
2017-Oct-19 07:28N 51°57' E 004°05'0 0.0
2017-Oct-19 06:58N 51°57' E 004°05'0 0.0
2017-Oct-19 06:28N 51°57' E 004°05'0 0.0
2017-Oct-19 05:55N 51°57' E 004°05'0 0.0
2017-Oct-19 05:28N 51°57' E 004°05'0 0.0
2017-Oct-19 04:49N 51°57' E 004°05'0 0.0
2017-Oct-19 04:29N 51°57' E 004°05'0 0.0
2017-Oct-19 03:59N 51°57' E 004°05'0 0.0
2017-Oct-19 03:29N 51°57' E 004°05'0 0.0
2017-Oct-19 02:56N 51°57' E 004°05'0 0.0
2017-Oct-19 02:29N 51°57' E 004°05'0 0.0
2017-Oct-19 01:56N 51°57' E 004°05'0 0.0
2017-Oct-19 01:26N 51°57' E 004°05'0 0.0
2017-Oct-19 00:59N 51°57' E 004°05'0 0.0
2017-Oct-19 00:29N 51°57' E 004°05'0 0.0
2017-Oct-18 23:56N 51°57' E 004°05'0 0.0
2017-Oct-18 23:26N 51°57' E 004°05'0 0.0
2017-Oct-18 22:59N 51°57' E 004°05'0 0.0
2017-Oct-18 22:29N 51°57' E 004°05'0 0.0
2017-Oct-18 21:59N 51°57' E 004°05'0 0.0
2017-Oct-18 21:29N 51°57' E 004°05'0 0.0
2017-Oct-18 20:56N 51°57' E 004°05'0 0.0
2017-Oct-18 20:26N 51°57' E 004°05'0 0.0
2017-Oct-18 19:56N 51°57' E 004°05'0 0.0
2017-Oct-18 19:26N 51°57' E 004°05'0 0.0
2017-Oct-18 18:59N 51°57' E 004°05'0 0.0
2017-Oct-18 18:29N 51°57' E 004°05'0 0.0
2017-Oct-18 17:56N 51°57' E 004°05'0 0.0
2017-Oct-18 17:29N 51°57' E 004°05'0 0.0
2017-Oct-18 16:56N 51°57' E 004°05'0 0.0
2017-Oct-18 16:23N 51°57' E 004°05'0 0.0
2017-Oct-18 15:56N 51°57' E 004°05'0 0.0
2017-Oct-18 15:26N 51°57' E 004°05'0 0.0
2017-Oct-18 14:59N 51°57' E 004°05'0 0.0
2017-Oct-18 13:50N 51°57' E 004°05'0 0.0
2017-Oct-18 13:29N 51°57' E 004°05'0 0.0
2017-Oct-18 12:59N 51°57' E 004°05'0 0.0
2017-Oct-18 12:30N 51°57' E 004°05'0 0.0
2017-Oct-18 12:00N 51°57' E 004°05'0 0.0
2017-Oct-18 11:28N 51°57' E 004°05'0 0.0
2017-Oct-18 10:58N 51°57' E 004°05'0 0.0
2017-Oct-18 10:28N 51°57' E 004°05'0 0.0
2017-Oct-18 09:58N 51°57' E 004°05'0 0.0
2017-Oct-18 09:28N 51°57' E 004°05'0 0.0
2017-Oct-18 08:52N 51°57' E 004°05'0 0.0
2017-Oct-18 08:25N 51°57' E 004°05'0 0.0
2017-Oct-18 07:58N 51°57' E 004°05'0 0.0
2017-Oct-18 07:28N 51°57' E 004°05'0 0.0
2017-Oct-18 06:46N 51°57' E 004°05'0 0.0
2017-Oct-18 06:28N 51°57' E 004°05'0 0.0
2017-Oct-18 05:55N 51°57' E 004°05'0 0.0
2017-Oct-18 05:22N 51°57' E 004°05'0 0.0
2017-Oct-18 04:58N 51°57' E 004°05'0 0.0
2017-Oct-18 04:25N 51°57' E 004°05'0 0.0
2017-Oct-18 03:58N 51°57' E 004°05'0 0.0
2017-Oct-18 03:28N 51°57' E 004°05'0 0.0
2017-Oct-18 02:58N 51°57' E 004°05'0 0.0
2017-Oct-18 02:28N 51°57' E 004°05'0 0.0
2017-Oct-18 01:52N 51°57' E 004°05'0 0.0
2017-Oct-18 01:25N 51°57' E 004°05'0 0.0
2017-Oct-18 00:58N 51°57' E 004°05'0 0.0
2017-Oct-18 00:28N 51°57' E 004°05'0 0.0
2017-Oct-17 23:58N 51°57' E 004°05'0 0.0
2017-Oct-17 23:28N 51°57' E 004°05'0 0.0
2017-Oct-17 22:58N 51°57' E 004°05'0 0.0
2017-Oct-17 22:28N 51°57' E 004°05'0 0.0
2017-Oct-17 21:58N 51°57' E 004°05'0 0.0
2017-Oct-17 21:28N 51°57' E 004°05'0 0.0
2017-Oct-17 20:58N 51°57' E 004°05'0 0.0
2017-Oct-17 20:28N 51°57' E 004°05'0 0.0
2017-Oct-17 20:00N 51°57' E 004°05'0 0.0
2017-Oct-17 19:30N 51°57' E 004°05'0 0.0
2017-Oct-17 19:00N 51°57' E 004°05'0 0.0
2017-Oct-17 18:27N 51°57' E 004°05'0 0.0
2017-Oct-17 17:57N 51°57' E 004°05'0 0.0
2017-Oct-17 17:30N 51°57' E 004°05'0 0.0
2017-Oct-17 17:00N 51°57' E 004°05'0 0.0
2017-Oct-17 16:27N 51°57' E 004°05'0 0.0
2017-Oct-17 15:54N 51°57' E 004°05'0 0.0
2017-Oct-17 15:18N 51°57' E 004°05'0 0.0
2017-Oct-17 14:51N 51°57' E 004°05'0 0.0
2017-Oct-17 14:30N 51°57' E 004°05'0 0.0
2017-Oct-17 13:57N 51°57' E 004°05'0 0.0
2017-Oct-17 13:30N 51°57' E 004°05'0 0.0
2017-Oct-17 13:00N 51°57' E 004°05'0 0.0
2017-Oct-17 12:27N 51°57' E 004°05'0 0.0
2017-Oct-17 11:57N 51°57' E 004°05'0 0.0
2017-Oct-17 11:30N 51°57' E 004°05'0 0.0
2017-Oct-17 11:00N 51°57' E 004°05'0 0.0
2017-Oct-17 10:27N 51°57' E 004°05'0 0.0
2017-Oct-17 09:57N 51°57' E 004°05'0 0.0
2017-Oct-17 09:24N 51°57' E 004°05'0 0.0
2017-Oct-17 09:00N 51°57' E 004°05'0 0.0
2017-Oct-17 08:27N 51°57' E 004°05'0 0.0
2017-Oct-17 07:57N 51°57' E 004°05'0 0.0
2017-Oct-17 07:18N 51°57' E 004°05'0 0.0
2017-Oct-17 07:00N 51°57' E 004°05'0 0.0
2017-Oct-17 06:27N 51°57' E 004°05'0 0.0
2017-Oct-17 06:00N 51°57' E 004°05'0 0.0
2017-Oct-17 05:30N 51°57' E 004°05'0 0.0
2017-Oct-17 04:57N 51°57' E 004°05'0 0.0
2017-Oct-17 04:30N 51°57' E 004°05'0 0.0
2017-Oct-17 03:51N 51°57' E 004°05'0 0.0
2017-Oct-17 03:15N 51°57' E 004°05'0 0.0
2017-Oct-17 02:57N 51°57' E 004°05'0 0.0
2017-Oct-17 02:30N 51°57' E 004°05'1 1.0
2017-Oct-17 02:00N 51°57' E 004°05'2 4.5
2017-Oct-17 01:30N 51°59' E 004°03'5 9.4
2017-Oct-17 01:00N 52°01' E 003°56'611.7
2017-Oct-17 00:30N 52°01' E 003°47'5 9.6
2017-Oct-17 00:00N 52°02' E 003°39'1 1.5
2017-Oct-16 23:30N 52°03' E 003°38'2 4.4
2017-Oct-16 23:00N 52°00' E 003°38'2 4.9
2017-Oct-16 22:30N 51°58' E 003°37'3 5.3
2017-Oct-16 22:00N 51°57' E 003°32'5 9.5
2017-Oct-16 21:30N 51°56' E 003°25'510.5
2017-Oct-16 21:00N 51°55' E 003°17'611.5
2017-Oct-16 20:30N 51°53' E 003°08'611.1
2017-Oct-16 20:00N 51°51' E 002°59'510.9
2017-Oct-16 19:30N 51°50' E 002°51'610.4
2017-Oct-16 18:55N 51°48' E 002°42'4 9.6
2017-Oct-16 18:27N 51°45' E 002°36'6 9.2
2017-Oct-16 17:46N 51°40' E 002°29'7 8.0
2017-Oct-16 16:54N 51°35' E 002°22'4 8.5
2017-Oct-16 16:26N 51°32' E 002°17'4 8.9
2017-Oct-16 16:00N 51°29' E 002°14'510.4
2017-Oct-16 15:30N 51°25' E 002°09'611.3
2017-Oct-16 15:00N 51°21' E 002°03'1211.5
2017-Oct-16 14:00N 51°13' E 001°49'612.1
2017-Oct-16 13:30N 51°08' E 001°43'612.2
2017-Oct-16 13:00N 51°03' E 001°37'612.5
2017-Oct-16 12:30N 50°58' E 001°31'612.6
2017-Oct-16 12:00N 50°53' E 001°27'612.7
2017-Oct-16 11:30N 50°47' E 001°24'612.2
2017-Oct-16 11:00N 50°41' E 001°20'611.9
2017-Oct-16 10:30N 50°37' E 001°13'611.9
2017-Oct-16 10:00N 50°34' E 001°05'711.6
2017-Oct-16 09:23N 50°30' E 000°56'611.3
2017-Oct-16 08:49N 50°27' E 000°46'811.5
2017-Oct-16 08:09N 50°26' E 000°35'411.8
2017-Oct-16 07:51N 50°25' E 000°29'412.0
2017-Oct-16 07:30N 50°24' E 000°23'812.5
2017-Oct-16 06:53N 50°22' E 000°11'512.9
2017-Oct-16 06:30N 50°20' E 000°04'713.2
2017-Oct-16 05:58N 50°18' W 000°06'613.4
2017-Oct-16 05:30N 50°16' W 000°16'713.5
2017-Oct-16 05:00N 50°14' W 000°26'713.5
2017-Oct-16 04:30N 50°12' W 000°36'713.3
2017-Oct-16 04:00N 50°10' W 000°46'2512.3
2017-Oct-16 01:58N 50°04' W 001°24'510.8
2017-Oct-16 01:30N 50°03' W 001°31'510.2
2017-Oct-16 01:00N 50°02' W 001°39'5 9.7
2017-Oct-16 00:30N 50°00' W 001°46'5 9.4
2017-Oct-15 23:55N 49°59' W 001°54'4 9.0
2017-Oct-15 23:30N 49°58' W 002°00'4 8.8
2017-Oct-15 23:00N 49°56' W 002°07'4 8.8
2017-Oct-15 22:30N 49°55' W 002°13'19 9.7
2017-Oct-15 20:31N 49°50' W 002°42'210.7
2017-Oct-15 20:20N 49°50' W 002°45'410.9
2017-Oct-15 20:00N 49°49' W 002°51'611.1
2017-Oct-15 19:30N 49°48' W 002°59'611.5
2017-Oct-15 19:01N 49°45' W 003°07'611.7
2017-Oct-15 18:31N 49°42' W 003°15'611.6
2017-Oct-15 18:00N 49°39' W 003°23'611.9
2017-Oct-15 17:28N 49°36' W 003°31'611.8
2017-Oct-15 16:59N 49°33' W 003°39'611.8
2017-Oct-15 16:31N 49°31' W 003°46'612.0
2017-Oct-15 16:00N 49°28' W 003°54'612.1
2017-Oct-15 15:30N 49°25' W 004°02'612.1
2017-Oct-15 15:00N 49°22' W 004°11'2012.3
2017-Oct-15 13:24N 49°12' W 004°37'512.3
2017-Oct-15 13:01N 49°10' W 004°44'912.3
2017-Oct-15 12:16N 49°06' W 004°56'312.4
2017-Oct-15 12:00N 49°04' W 005°00'1110.9
2017-Oct-15 10:59N 48°58' W 005°14'5 9.9
2017-Oct-15 10:30N 48°55' W 005°20'5 9.7
2017-Oct-15 10:01N 48°52' W 005°26'5 9.6
2017-Oct-15 09:31N 48°50' W 005°32'610.1
2017-Oct-15 08:53N 48°46' W 005°40'1311.2
2017-Oct-15 07:43N 48°34' W 005°49'711.0
2017-Oct-15 07:07N 48°28' W 005°54'410.8
2017-Oct-15 06:43N 48°25' W 005°57'210.5
2017-Oct-15 06:30N 48°23' W 005°59'610.5
2017-Oct-15 05:58N 48°18' W 006°03'510.6
2017-Oct-15 05:30N 48°13' W 006°06'610.6
2017-Oct-15 04:57N 48°08' W 006°10'510.5
2017-Oct-15 04:31N 48°04' W 006°14'710.5
2017-Oct-15 03:49N 47°57' W 006°19'610.6
2017-Oct-15 03:15N 47°52' W 006°23'310.8
2017-Oct-15 02:57N 47°49' W 006°25'510.8
2017-Oct-15 02:28N 47°45' W 006°29'1610.9
2017-Oct-15 00:58N 47°30' W 006°40'4511.0
2017-Oct-14 20:54N 46°51' W 007°11'28010.9
2017-Oct-13 19:18N 42°36' W 009°56'310.8
2017-Oct-13 19:01N 42°33' W 009°56'8311.1
2017-Oct-13 11:30N 41°10' W 009°56'510.7
2017-Oct-13 11:00N 41°05' W 009°57'510.6
2017-Oct-13 10:30N 40°59' W 009°57'4110.8
2017-Oct-13 06:45N 40°19' W 009°56'310.8
2017-Oct-13 06:30N 40°16' W 009°56'510.7
2017-Oct-13 06:00N 40°11' W 009°56'4110.9
2017-Oct-13 02:16N 39°30' W 009°57'511.0
2017-Oct-13 01:49N 39°25' W 009°57'411.1
2017-Oct-13 01:29N 39°22' W 009°57'511.2
2017-Oct-13 01:00N 39°16' W 009°57'510.7
2017-Oct-13 00:30N 39°11' W 009°57'510.9
2017-Oct-13 00:00N 39°05' W 009°57'611.1
2017-Oct-12 23:30N 38°60' W 009°57'611.0
2017-Oct-12 23:00N 38°54' W 009°57'611.1
2017-Oct-12 22:30N 38°49' W 009°57'612.3
2017-Oct-12 22:00N 38°43' W 009°57'612.7
2017-Oct-12 21:30N 38°36' W 009°55'612.9
2017-Oct-12 21:00N 38°30' W 009°53'713.0
2017-Oct-12 20:30N 38°24' W 009°51'712.9
2017-Oct-12 20:00N 38°18' W 009°49'712.5
2017-Oct-12 19:27N 38°11' W 009°47'511.9
2017-Oct-12 18:59N 38°05' W 009°46'611.6
2017-Oct-12 18:30N 37°60' W 009°44'811.2
2017-Oct-12 17:49N 37°52' W 009°42'411.7
2017-Oct-12 17:28N 37°48' W 009°41'511.6
2017-Oct-12 17:01N 37°43' W 009°39'611.4
2017-Oct-12 16:30N 37°38' W 009°38'6010.7
2017-Oct-12 10:53N 36°41' W 009°13'510.7
2017-Oct-12 10:23N 36°39' W 009°07'511.9
2017-Oct-12 09:57N 36°38' W 009°01'612.3
2017-Oct-12 09:29N 36°37' W 008°54'911.8
2017-Oct-12 08:42N 36°34' W 008°43'311.9
2017-Oct-12 08:28N 36°34' W 008°39'611.9
2017-Oct-12 07:58N 36°32' W 008°32'611.8
2017-Oct-12 07:30N 36°31' W 008°25'611.6
2017-Oct-12 06:57N 36°29' W 008°18'511.3
2017-Oct-12 06:30N 36°28' W 008°12'611.7
2017-Oct-12 06:00N 36°26' W 008°05'611.8
2017-Oct-12 05:29N 36°25' W 007°57'511.6
2017-Oct-12 05:00N 36°23' W 007°51'711.4
2017-Oct-12 04:24N 36°21' W 007°43'511.5
2017-Oct-12 03:59N 36°19' W 007°37'611.8
2017-Oct-12 03:30N 36°17' W 007°31'612.2
2017-Oct-12 03:00N 36°14' W 007°24'611.9
2017-Oct-12 02:29N 36°12' W 007°17'3811.7
2017-Oct-11 23:13N 35°58' W 006°33'511.4
2017-Oct-11 22:47N 35°57' W 006°27'4110.8
2017-Oct-11 19:00N 35°58' W 005°36'510.9
2017-Oct-11 18:30N 35°59' W 005°30'510.7
2017-Oct-11 18:01N 36°01' W 005°23'510.9
2017-Oct-11 17:31N 36°03' W 005°17'510.4
2017-Oct-11 17:00N 36°04' W 005°11'20311.2
2017-Oct-10 22:54N 36°26' W 001°01'1611.3
2017-Oct-10 21:32N 36°32' W 000°43'111.3
2017-Oct-10 21:29N 36°32' W 000°42'2911.6
2017-Oct-10 18:58N 36°43' W 000°09'611.5
2017-Oct-10 18:28N 36°45' W 000°02'511.4
2017-Oct-10 18:00N 36°48' E 000°04'611.6
2017-Oct-10 17:31N 36°50' E 000°10'611.6
2017-Oct-10 16:59N 36°53' E 000°17'611.6
2017-Oct-10 16:31N 36°55' E 000°24'611.5
2017-Oct-10 16:00N 36°57' E 000°30'611.6
2017-Oct-10 15:30N 36°59' E 000°37'811.8
2017-Oct-10 14:50N 37°02' E 000°46'1612.0
2017-Oct-10 13:28N 37°08' E 001°06'  

Dump ship's entire track history